Time;durP1;ratioP1;P1;durP2;ratioP2;P2;SDS_P1;SDS_P2;PMS_P1;PMS_P2;Temp;Humidity;BMP_temperature;BMP_pressure;BME280_temperature;BME280_humidity;BME280_pressure;Samples;Min_cycle;Max_cycle;Signal;HPM_P1;HPM_P2
2021/05/10 00:01:32;;;;;;;7.45;4.93;;;;;;;14.33;89.89;99964.53;5072769;28;20106;-54
2021/05/10 00:04:00;;;;;;;9.18;6.10;;;;;;;14.35;90.00;99981.84;5072552;28;20047;-51
2021/05/10 00:06:27;;;;;;;8.30;6.43;;;;;;;14.35;89.92;99974.25;5073452;28;20098;-49
2021/05/10 00:08:55;;;;;;;9.38;6.53;;;;;;;14.38;90.02;99979.16;5072309;28;20055;-50
2021/05/10 00:11:22;;;;;;;9.73;6.65;;;;;;;14.41;90.02;99989.72;5073227;28;20044;-50
2021/05/10 00:13:50;;;;;;;10.80;6.82;;;;;;;14.42;89.79;99985.75;5073108;28;20138;-49
2021/05/10 00:16:18;;;;;;;9.80;6.72;;;;;;;14.41;89.94;99992.53;5072805;28;20049;-51
2021/05/10 00:18:46;;;;;;;9.23;6.50;;;;;;;14.41;89.96;99988.88;5072811;28;20479;-51
2021/05/10 00:21:13;;;;;;;8.63;5.90;;;;;;;14.40;90.02;99988.06;5072815;28;20102;-54
2021/05/10 00:23:40;;;;;;;8.68;5.60;;;;;;;14.41;90.09;99984.09;5072218;28;20135;-53
2021/05/10 00:26:07;;;;;;;12.63;7.15;;;;;;;14.42;90.23;99980.13;5072680;28;20048;-50
2021/05/10 00:28:34;;;;;;;11.52;6.32;;;;;;;14.42;90.16;99974.50;5072655;28;20133;-52
2021/05/10 00:31:01;;;;;;;7.03;5.38;;;;;;;14.42;90.01;99971.72;5072376;28;20551;-50
2021/05/10 00:33:28;;;;;;;9.38;5.18;;;;;;;14.43;90.07;99975.34;5072704;28;20040;-53
2021/05/10 00:35:56;;;;;;;7.55;5.28;;;;;;;14.44;90.20;99976.97;5062861;28;20403;-50
2021/05/10 00:38:23;;;;;;;9.23;5.50;;;;;;;14.44;90.35;99974.16;5071615;28;20102;-48
2021/05/10 00:40:49;;;;;;;12.32;6.88;;;;;;;14.45;90.37;99967.38;5072813;28;20049;-48
2021/05/10 00:43:16;;;;;;;7.55;5.78;;;;;;;14.45;90.30;99967.38;5072523;28;20044;-51
2021/05/10 00:45:43;;;;;;;9.15;5.63;;;;;;;14.44;90.32;99960.13;5072059;28;20785;-51
2021/05/10 00:48:11;;;;;;;7.90;5.63;;;;;;;14.44;90.26;99960.13;5072325;28;20060;-49
2021/05/10 00:50:38;;;;;;;10.60;6.47;;;;;;;14.43;90.43;99944.47;5071730;28;20068;-51
2021/05/10 00:53:05;;;;;;;7.63;5.53;;;;;;;14.42;90.44;99951.25;5072086;28;20044;-49
2021/05/10 00:55:35;;;;;;;9.20;5.88;;;;;;;14.42;90.72;99945.63;5071890;28;20074;-50
2021/05/10 00:58:02;;;;;;;9.30;6.60;;;;;;;14.42;90.65;99942.81;5071220;28;20566;-52
2021/05/10 01:00:30;;;;;;;10.93;7.13;;;;;;;14.43;90.62;99927.63;5071904;28;20572;-54
2021/05/10 01:02:58;;;;;;;8.18;5.32;;;;;;;14.43;90.87;99919.19;5072313;28;20075;-53
2021/05/10 01:05:25;;;;;;;8.93;5.10;;;;;;;14.42;90.63;99923.16;5071190;28;20409;-52
2021/05/10 01:07:52;;;;;;;8.60;6.18;;;;;;;14.43;90.86;99924.81;5054210;28;20072;-49
2021/05/10 01:10:22;;;;;;;9.50;6.57;;;;;;;14.43;90.66;99927.63;5058150;28;20041;-50
2021/05/10 01:12:49;;;;;;;9.35;5.68;;;;;;;14.42;90.97;99911.94;5053587;28;20091;-51
2021/05/10 01:15:18;;;;;;;11.18;6.85;;;;;;;14.42;91.04;99920.34;5071748;28;20105;-50
2021/05/10 01:17:46;;;;;;;6.57;5.30;;;;;;;14.41;90.80;99915.91;5071876;28;20048;-51
2021/05/10 01:20:15;;;;;;;9.48;6.03;;;;;;;14.43;90.93;99913.56;5070941;28;20094;-47
2021/05/10 01:22:46;;;;;;;7.75;5.63;;;;;;;14.43;91.01;99919.19;5071910;28;20390;-51
2021/05/10 01:25:16;;;;;;;8.35;5.38;;;;;;;14.44;91.09;99904.00;5071598;28;20102;-52
2021/05/10 01:27:43;;;;;;;8.57;5.30;;;;;;;14.49;91.29;99889.75;5071376;28;20080;-53
2021/05/10 01:30:16;;;;;;;6.63;5.38;;;;;;;14.53;91.43;99889.88;5071474;28;20056;-49
2021/05/10 01:32:44;;;;;;;10.05;4.95;;;;;;;14.57;91.75;99863.56;5053675;28;20072;-51
2021/05/10 01:35:12;;;;;;;7.82;5.40;;;;;;;14.60;91.84;99864.81;5070939;28;20040;-49
2021/05/10 01:37:38;;;;;;;6.95;5.22;;;;;;;14.63;91.93;99861.31;5071641;28;20048;-52
2021/05/10 01:40:08;;;;;;;7.82;4.93;;;;;;;14.65;92.07;99853.34;5070802;28;20045;-49
2021/05/10 01:42:35;;;;;;;4.80;4.15;;;;;;;14.66;92.27;99852.19;5071546;28;20056;-50
2021/05/10 01:45:04;;;;;;;8.30;5.10;;;;;;;14.68;92.49;99855.47;5071125;28;20048;-49
2021/05/10 01:47:31;;;;;;;6.95;5.70;;;;;;;14.69;92.68;99849.50;5071034;28;20123;-52
2021/05/10 01:49:59;;;;;;;7.15;5.25;;;;;;;14.71;92.80;99843.53;5071721;28;20060;-53
2021/05/10 01:52:26;;;;;;;7.65;5.90;;;;;;;14.70;92.85;99833.47;5070915;28;20153;-51
2021/05/10 01:54:54;;;;;;;7.32;5.65;;;;;;;14.71;92.96;99835.13;5070798;28;20052;-52
2021/05/10 01:57:22;;;;;;;9.13;6.57;;;;;;;14.71;93.29;99841.56;5070897;28;20049;-53
2021/05/10 01:59:49;;;;;;;7.93;6.55;;;;;;;14.73;94.01;99844.00;5071233;28;20052;-49
2021/05/10 02:02:16;;;;;;;8.63;6.55;;;;;;;14.74;94.05;99846.47;5070613;28;20048;-56
2021/05/10 02:05:13;;;;;;;8.40;6.97;;;;;;;14.78;94.32;99867.06;5071336;28;20458;-52
2021/05/10 02:07:41;;;;;;;9.10;7.03;;;;;;;14.76;94.64;99885.44;5070958;28;20050;-55
2021/05/10 02:10:11;;;;;;;8.25;6.88;;;;;;;14.79;94.88;99877.09;5071225;28;20074;-56
2021/05/10 02:12:39;;;;;;;10.02;7.28;;;;;;;14.80;95.05;99878.75;5071203;28;20060;-56
2021/05/10 02:15:08;;;;;;;8.77;6.13;;;;;;;14.82;94.93;99855.91;5070822;28;20053;-55
2021/05/10 02:17:36;;;;;;;8.48;6.05;;;;;;;14.82;94.98;99859.56;5071008;28;20110;-53
2021/05/10 02:20:05;;;;;;;9.23;6.43;;;;;;;14.84;95.20;99856.41;5071013;28;20497;-50
2021/05/10 02:22:32;;;;;;;10.00;7.47;;;;;;;14.82;95.17;99845.50;5070132;28;20072;-53
2021/05/10 02:24:59;;;;;;;9.07;7.03;;;;;;;14.78;95.52;99840.97;5070935;28;20114;-53
2021/05/10 02:27:26;;;;;;;9.13;7.05;;;;;;;14.77;95.71;99834.53;5070937;28;20398;-48
2021/05/10 02:29:53;;;;;;;9.52;6.93;;;;;;;14.79;95.56;99825.72;5070351;28;20045;-54
2021/05/10 02:32:20;;;;;;;8.07;5.95;;;;;;;14.78;95.70;99819.31;5070800;28;20088;-49
2021/05/10 02:34:48;;;;;;;8.77;6.30;;;;;;;14.79;95.93;99826.56;5070856;28;20048;-51
2021/05/10 02:37:17;;;;;;;8.45;5.22;;;;;;;14.81;96.04;99829.00;5069954;28;20040;-52
2021/05/10 02:39:44;;;;;;;9.45;6.00;;;;;;;14.81;96.04;99821.41;5060082;28;20110;-52
2021/05/10 02:42:11;;;;;;;6.82;5.88;;;;;;;14.81;95.83;99815.78;5070748;28;20129;-49
2021/05/10 02:44:40;;;;;;;9.60;6.25;;;;;;;14.81;95.75;99800.91;5070204;28;20099;-54
2021/05/10 02:47:08;;;;;;;9.30;6.20;;;;;;;14.78;95.79;99802.47;5070669;28;20052;-51
2021/05/10 02:49:35;;;;;;;8.05;5.10;;;;;;;14.79;95.82;99800.44;5052351;28;20127;-50
2021/05/10 02:52:02;;;;;;;9.32;5.50;;;;;;;14.77;96.12;99803.63;5070490;28;20052;-55
2021/05/10 02:54:29;;;;;;;8.30;5.30;;;;;;;14.79;96.11;99783.59;5070367;28;20087;-54
2021/05/10 02:56:56;;;;;;;7.03;4.70;;;;;;;14.79;96.08;99790.03;5070501;28;20047;-56
2021/05/10 02:59:23;;;;;;;8.55;5.18;;;;;;;14.81;95.84;99784.88;5069808;28;20040;-55
2021/05/10 03:01:49;;;;;;;9.85;5.63;;;;;;;14.81;95.78;99776.47;5070725;28;20122;-53
2021/05/10 03:04:17;;;;;;;7.95;5.40;;;;;;;14.82;95.92;99774.47;5069739;28;20169;-53
2021/05/10 03:06:44;;;;;;;8.30;5.43;;;;;;;14.82;95.84;99763.25;5070750;28;20036;-51
2021/05/10 03:09:11;;;;;;;7.93;5.75;;;;;;;14.82;95.84;99766.03;5070354;28;20121;-55
2021/05/10 03:11:38;;;;;;;7.07;5.43;;;;;;;14.83;95.65;99764.88;5070123;28;20060;-54
2021/05/10 03:14:05;;;;;;;8.32;5.82;;;;;;;14.83;95.78;99745.22;5070387;28;20052;-54
2021/05/10 03:16:32;;;;;;;8.52;4.93;;;;;;;14.82;95.45;99741.59;5070128;28;20041;-54
2021/05/10 03:18:59;;;;;;;8.35;5.95;;;;;;;14.83;95.72;99750.84;5069602;28;20446;-55
2021/05/10 03:21:26;;;;;;;9.63;6.22;;;;;;;14.82;95.59;99744.41;5071314;28;20455;-56
2021/05/10 03:23:53;;;;;;;8.52;5.53;;;;;;;14.82;95.55;99740.78;5073896;28;20113;-52
2021/05/10 03:26:20;;;;;;;6.95;5.63;;;;;;;14.82;95.55;99738.78;5073586;28;20064;-54
2021/05/10 03:28:47;;;;;;;7.60;5.50;;;;;;;14.83;95.38;99740.41;5073902;28;20051;-57
2021/05/10 03:31:13;;;;;;;7.93;5.90;;;;;;;14.83;95.24;99740.41;5073710;28;20068;-57
2021/05/10 03:33:40;;;;;;;6.82;5.43;;;;;;;14.87;95.27;99736.91;5073393;28;20066;-56
2021/05/10 03:36:07;;;;;;;7.50;5.40;;;;;;;14.88;95.20;99728.13;5073563;28;20473;-57
2021/05/10 03:38:35;;;;;;;5.97;5.10;;;;;;;14.89;95.13;99735.38;5073769;28;20121;-54
2021/05/10 03:41:02;;;;;;;8.63;5.68;;;;;;;14.92;94.92;99739.47;5055152;28;20391;-52
2021/05/10 03:43:29;;;;;;;7.75;6.05;;;;;;;14.94;95.04;99748.38;5073774;28;20062;-53
2021/05/10 03:45:56;;;;;;;8.00;6.00;;;;;;;14.95;94.69;99721.91;5073226;28;20048;-54
2021/05/10 03:48:23;;;;;;;8.68;6.10;;;;;;;14.96;94.61;99720.75;5073257;28;20052;-53
2021/05/10 03:50:49;;;;;;;7.32;5.32;;;;;;;14.97;94.31;99726.00;5072925;28;20063;-53
2021/05/10 03:53:16;;;;;;;8.63;6.03;;;;;;;14.97;94.21;99736.41;5072739;28;20068;-50
2021/05/10 03:55:44;;;;;;;8.60;5.78;;;;;;;14.96;94.23;99724.38;5071846;28;20106;-54
2021/05/10 03:58:11;;;;;;;9.13;7.28;;;;;;;14.96;94.15;99724.38;5054293;28;20102;-56
2021/05/10 04:00:37;;;;;;;9.98;6.47;;;;;;;14.96;94.06;99721.56;5071390;28;20136;-54
2021/05/10 04:03:06;;;;;;;8.48;6.70;;;;;;;14.95;93.96;99707.88;5072210;28;20060;-55
2021/05/10 04:05:56;;;;;;;9.05;6.18;;;;;;;14.93;93.84;99699.78;5072167;28;20059;-51
2021/05/10 04:08:48;;;;;;;9.32;6.63;;;;;;;14.90;94.10;99683.66;5072680;28;20093;-52
2021/05/10 04:11:25;;;;;;;9.00;6.43;;;;;;;14.89;94.03;99684.81;5073144;28;20072;-50
2021/05/10 04:13:54;;;;;;;9.45;7.10;;;;;;;14.90;93.88;99686.44;5073099;28;20056;-52
2021/05/10 04:16:22;;;;;;;12.25;8.38;;;;;;;14.90;93.89;99691.25;5071058;28;20040;-51
2021/05/10 04:18:53;;;;;;;;;;;;;;;14.79;93.78;99680.50;5071350;28;20078;-50
2021/05/10 04:21:20;;;;;;;11.95;6.85;;;;;;;14.81;94.32;99677.34;5070831;28;19932;-51
2021/05/10 04:23:47;;;;;;;12.10;7.90;;;;;;;14.86;93.98;99681.91;5071516;28;20040;-54
2021/05/10 04:26:15;;;;;;;10.25;8.35;;;;;;;14.88;93.99;99671.13;5071701;28;20051;-52
2021/05/10 04:28:43;;;;;;;12.70;8.75;;;;;;;14.89;93.85;99679.19;5071114;28;20040;-56
2021/05/10 04:31:10;;;;;;;13.15;8.70;;;;;;;14.91;93.69;99667.59;5071261;28;20044;-53
2021/05/10 04:33:37;;;;;;;13.80;9.57;;;;;;;14.92;93.58;99670.06;5071506;28;20110;-52
2021/05/10 04:36:04;;;;;;;11.25;9.73;;;;;;;14.94;93.37;99658.47;5071683;28;20119;-48
2021/05/10 04:38:32;;;;;;;12.45;9.77;;;;;;;14.96;93.29;99667.38;5072228;28;20102;-54
2021/05/10 04:40:59;;;;;;;12.55;9.68;;;;;;;14.96;92.93;99658.94;5072343;28;20524;-50
2021/05/10 04:43:27;;;;;;;12.52;9.88;;;;;;;14.99;92.98;99650.59;5072072;28;20045;-54
2021/05/10 04:45:58;;;;;;;13.20;10.30;;;;;;;15.01;92.77;99662.28;5072568;28;20044;-52
2021/05/10 04:48:26;;;;;;;11.63;8.70;;;;;;;15.05;92.57;99654.78;5072082;28;20056;-50
2021/05/10 04:50:52;;;;;;;11.48;9.82;;;;;;;15.08;92.40;99661.69;5071809;28;20060;-54
2021/05/10 04:53:19;;;;;;;12.85;10.82;;;;;;;15.11;92.19;99663.78;5070895;28;20049;-54
2021/05/10 04:55:46;;;;;;;13.55;10.27;;;;;;;15.13;92.13;99659.44;5072199;28;20049;-53
2021/05/10 04:58:13;;;;;;;13.63;10.50;;;;;;;15.13;91.87;99664.22;5071209;28;20094;-52
2021/05/10 05:00:41;;;;;;;12.88;10.50;;;;;;;15.13;91.84;99656.63;5072048;28;20045;-49
2021/05/10 05:03:08;;;;;;;13.25;11.18;;;;;;;15.14;91.68;99663.06;5071597;28;20642;-48
2021/05/10 05:05:35;;;;;;;14.20;11.00;;;;;;;15.14;91.59;99674.28;5071262;28;20052;-52
2021/05/10 05:08:02;;;;;;;13.05;11.15;;;;;;;15.14;91.45;99679.91;5053648;28;20391;-51
2021/05/10 05:10:29;;;;;;;13.23;10.90;;;;;;;15.16;91.46;99683.19;5071790;28;20056;-55
2021/05/10 05:12:55;;;;;;;15.98;11.57;;;;;;;15.15;91.37;99679.56;5070954;28;20101;-53
2021/05/10 05:15:22;;;;;;;12.65;11.25;;;;;;;15.14;91.36;99691.16;5071548;28;20052;-54
2021/05/10 05:17:50;;;;;;;12.85;11.50;;;;;;;15.14;91.23;99691.16;5071058;28;20076;-56
2021/05/10 05:20:18;;;;;;;14.55;11.88;;;;;;;15.15;90.74;99701.22;5071690;28;20122;-50
2021/05/10 05:22:46;;;;;;;12.38;10.48;;;;;;;15.19;90.19;99718.19;5071296;28;20094;-48
2021/05/10 05:25:13;;;;;;;13.32;10.05;;;;;;;15.24;90.09;99724.34;5070674;28;20548;-50
2021/05/10 05:27:40;;;;;;;12.45;9.88;;;;;;;15.26;89.49;99733.25;5071320;28;20090;-51
2021/05/10 05:30:10;;;;;;;13.25;10.25;;;;;;;15.28;89.64;99747.75;5071252;28;20570;-49
2021/05/10 05:32:37;;;;;;;10.68;9.57;;;;;;;15.33;89.42;99760.75;5071117;28;20068;-54
2021/05/10 05:35:07;;;;;;;10.00;8.27;;;;;;;15.33;89.44;99778.44;5053311;28;20044;-54
2021/05/10 05:37:34;;;;;;;14.05;9.32;;;;;;;15.24;89.89;99825.53;5071416;28;20048;-51
2021/05/10 05:40:01;;;;;;;15.45;7.40;;;;;;;14.91;89.77;99822.09;5070387;28;20117;-57
2021/05/10 05:42:28;;;;;;;16.40;7.40;;;;;;;14.54;89.72;99818.50;5071682;28;20049;-52
2021/05/10 05:44:55;;;;;;;21.50;7.40;;;;;;;14.19;90.02;99796.47;5071024;28;20114;-54
2021/05/10 05:47:24;;;;;;;25.52;8.05;;;;;;;13.89;90.68;99781.00;5071268;28;20040;-53
2021/05/10 05:49:53;;;;;;;19.75;7.10;;;;;;;13.62;91.17;99737.59;5071071;28;20090;-57
2021/05/10 05:52:21;;;;;;;21.13;6.70;;;;;;;13.52;91.74;99696.00;5071367;28;20055;-53
2021/05/10 05:54:49;;;;;;;24.77;7.03;;;;;;;13.45;91.76;99658.16;5070751;28;20052;-49
2021/05/10 05:57:16;;;;;;;25.40;7.10;;;;;;;13.43;91.84;99656.88;5071328;28;20044;-50
2021/05/10 05:59:42;;;;;;;27.20;7.25;;;;;;;13.34;92.26;99732.63;5071374;28;20106;-50
2021/05/10 06:02:10;;;;;;;29.13;7.93;;;;;;;13.21;92.53;99772.13;5070896;28;20048;-50
2021/05/10 06:04:37;;;;;;;39.30;9.23;;;;;;;13.08;93.13;99818.84;5070916;28;20523;-51
2021/05/10 06:07:04;;;;;;;28.35;7.20;;;;;;;12.98;93.75;99810.88;5071277;28;20051;-51
2021/05/10 06:09:31;;;;;;;22.00;7.13;;;;;;;12.95;94.18;99836.75;5070811;28;20048;-53
2021/05/10 06:11:58;;;;;;;26.75;7.97;;;;;;;12.92;94.49;99871.84;5071194;28;20451;-53
2021/05/10 06:14:25;;;;;;;20.88;7.40;;;;;;;12.90;94.95;99918.16;5070590;28;20037;-52
2021/05/10 06:16:52;;;;;;;19.90;6.35;;;;;;;12.88;94.74;99904.47;5070936;28;20444;-52
2021/05/10 06:19:19;;;;;;;30.35;7.97;;;;;;;12.84;94.90;99920.31;5071197;28;20051;-55
2021/05/10 06:21:46;;;;;;;26.33;6.63;;;;;;;12.82;94.96;99930.19;5070790;28;20093;-50
2021/05/10 06:24:13;;;;;;;26.58;6.75;;;;;;;12.80;95.10;99943.72;5070753;28;20040;-52
2021/05/10 06:26:43;;;;;;;27.80;6.32;;;;;;;12.77;95.36;99934.84;5071106;28;20052;-53
2021/05/10 06:29:10;;;;;;;25.80;5.10;;;;;;;12.73;95.68;99961.03;5069568;28;20045;-51
2021/05/10 06:31:37;;;;;;;22.55;5.20;;;;;;;12.70;95.67;99958.91;5070797;28;20040;-50
2021/05/10 06:34:05;;;;;;;27.90;5.20;;;;;;;12.70;95.43;99956.94;5070961;28;20404;-51
2021/05/10 06:36:32;;;;;;;25.52;5.00;;;;;;;12.70;95.77;99970.94;5070173;28;20052;-48
2021/05/10 06:38:59;;;;;;;20.08;4.85;;;;;;;12.69;95.99;99974.88;5070577;28;20063;-49
2021/05/10 06:41:26;;;;;;;24.05;5.00;;;;;;;12.72;96.29;99988.22;5070810;28;20044;-52
2021/05/10 06:43:54;;;;;;;20.88;4.72;;;;;;;12.74;96.52;99988.72;5070368;28;20056;-51
2021/05/10 06:46:23;;;;;;;27.80;5.68;;;;;;;12.76;96.51;99992.00;5070736;28;20127;-50
2021/05/10 06:48:50;;;;;;;19.85;4.90;;;;;;;12.75;96.57;99990.34;5070937;28;20044;-55
2021/05/10 06:51:16;;;;;;;19.30;4.53;;;;;;;12.76;96.62;99991.19;5069933;28;20067;-54
2021/05/10 06:53:43;;;;;;;23.67;4.70;;;;;;;12.73;96.93;99989.03;5070993;28;20059;-49
2021/05/10 06:56:11;;;;;;;15.70;4.13;;;;;;;12.74;96.73;99990.69;5070473;28;20048;-55
2021/05/10 06:58:38;;;;;;;23.00;4.90;;;;;;;12.70;96.92;100009.31;5074198;28;20044;-55
2021/05/10 07:01:06;;;;;;;17.00;4.13;;;;;;;12.67;96.93;100015.56;5074377;28;20105;-54
2021/05/10 07:03:33;;;;;;;16.88;3.85;;;;;;;12.62;96.77;100027.75;5073997;28;20604;-54
2021/05/10 07:06:00;;;;;;;12.13;3.63;;;;;;;12.61;96.81;100026.09;5074101;28;20083;-55
2021/05/10 07:08:26;;;;;;;19.25;3.65;;;;;;;12.52;96.86;100033.72;5074624;28;20498;-56
2021/05/10 07:10:54;;;;;;;13.57;3.50;;;;;;;12.48;97.13;100029.94;5072360;28;20102;-51
2021/05/10 07:13:22;;;;;;;17.95;3.53;;;;;;;12.47;96.89;100041.47;5074226;28;20048;-56
2021/05/10 07:15:50;;;;;;;13.95;3.75;;;;;;;12.45;97.40;100047.38;5071225;28;20064;-52
2021/05/10 07:18:19;;;;;;;15.88;3.50;;;;;;;12.46;97.81;100054.63;5072999;28;20041;-51
2021/05/10 07:20:47;;;;;;;17.77;3.60;;;;;;;12.51;97.77;100062.03;5074040;28;20437;-50
2021/05/10 07:23:15;;;;;;;16.80;3.75;;;;;;;12.50;97.58;100064.00;5073574;28;20541;-49
2021/05/10 07:25:44;;;;;;;15.70;2.90;;;;;;;12.48;97.75;100068.28;5073358;28;20520;-53
2021/05/10 07:28:12;;;;;;;19.60;3.47;;;;;;;12.43;97.78;100056.09;5073733;28;20118;-50
2021/05/10 07:30:40;;;;;;;16.05;3.20;;;;;;;12.41;97.71;100068.78;5073707;28;20451;-47
2021/05/10 07:33:07;;;;;;;16.15;4.00;;;;;;;12.35;97.59;100078.50;5072972;28;20106;-56
2021/05/10 07:35:35;;;;;;;13.23;3.10;;;;;;;12.29;97.90;100085.41;5074015;28;20040;-50
2021/05/10 07:38:03;;;;;;;11.63;3.35;;;;;;;12.25;97.98;100084.44;5073767;28;20044;-50
2021/05/10 07:40:31;;;;;;;11.98;2.80;;;;;;;12.22;98.12;100096.28;5073305;28;20053;-47
2021/05/10 07:42:59;;;;;;;13.18;3.92;;;;;;;12.20;98.33;100090.19;5073339;28;20048;-53
2021/05/10 07:45:27;;;;;;;16.00;3.20;;;;;;;12.16;98.50;100100.41;5073477;28;20056;-52
2021/05/10 07:47:55;;;;;;;20.05;3.70;;;;;;;12.14;98.65;100088.72;5072829;28;20138;-50
2021/05/10 07:50:23;;;;;;;18.42;4.05;;;;;;;12.13;98.88;100098.25;5073822;28;20072;-51
2021/05/10 07:52:51;;;;;;;13.27;3.72;;;;;;;12.06;99.27;100109.91;5072811;28;20076;-51
2021/05/10 07:55:18;;;;;;;11.68;4.43;;;;;;;11.98;99.45;100117.16;5073268;28;20041;-53
2021/05/10 07:57:45;;;;;;;13.35;4.47;;;;;;;11.99;99.27;100126.38;5055663;28;20448;-48
2021/05/10 08:00:20;;;;;;;16.10;3.92;;;;;;;11.94;99.30;100134.91;5072841;28;20037;-49
2021/05/10 08:02:51;;;;;;;14.63;3.77;;;;;;;11.88;99.47;100134.25;5072099;28;20517;-49
2021/05/10 08:05:18;;;;;;;11.77;3.33;;;;;;;11.83;99.53;100150.34;5073412;28;20060;-52
2021/05/10 08:07:45;;;;;;;14.40;3.10;;;;;;;11.76;99.51;100153.63;5072560;28;20052;-48
2021/05/10 08:10:14;;;;;;;14.40;3.63;;;;;;;11.77;99.36;100162.84;5072790;28;20033;-49
2021/05/10 08:12:41;;;;;;;12.02;2.80;;;;;;;11.76;99.56;100175.97;5073214;28;20048;-50
2021/05/10 08:15:09;;;;;;;13.02;2.90;;;;;;;11.74;99.46;100169.84;5072638;28;20516;-50
2021/05/10 08:17:36;;;;;;;15.90;3.42;;;;;;;11.74;99.24;100173.47;5073216;28;20051;-50
2021/05/10 08:20:04;;;;;;;11.93;3.25;;;;;;;11.73;99.37;100183.00;5072650;28;20076;-52
2021/05/10 08:22:31;;;;;;;17.45;3.80;;;;;;;11.73;99.43;100208.16;5072462;28;20052;-52
2021/05/10 08:25:00;;;;;;;15.82;3.92;;;;;;;11.75;99.61;100207.84;5072666;28;20501;-51
2021/05/10 08:27:27;;;;;;;13.93;3.85;;;;;;;11.83;99.62;100209.88;5072860;28;20048;-54
2021/05/10 08:29:55;;;;;;;17.05;4.30;;;;;;;11.94;99.78;100211.22;5071357;28;20502;-52
2021/05/10 08:32:22;;;;;;;15.40;4.75;;;;;;;11.98;99.40;100217.84;5072429;28;20048;-53
2021/05/10 08:34:50;;;;;;;15.77;4.55;;;;;;;11.96;98.92;100219.31;5071292;28;20501;-50
2021/05/10 08:37:20;;;;;;;19.20;4.53;;;;;;;11.94;98.83;100214.03;5072261;28;20043;-53
2021/05/10 08:39:47;;;;;;;16.60;4.05;;;;;;;11.90;98.91;100210.22;5072183;28;20433;-51
2021/05/10 08:42:16;;;;;;;17.65;4.07;;;;;;;11.96;98.90;100222.91;5071777;28;20125;-55
2021/05/10 08:44:44;;;;;;;12.93;4.55;;;;;;;12.03;98.90;100222.44;5072378;28;20048;-52
2021/05/10 08:47:11;;;;;;;14.52;4.38;;;;;;;12.13;99.09;100249.28;5072439;28;20048;-56
2021/05/10 08:49:38;;;;;;;12.30;4.63;;;;;;;12.08;98.60;100233.47;5071959;28;20052;-56
2021/05/10 08:52:05;;;;;;;12.65;5.20;;;;;;;12.14;98.41;100231.34;5072295;28;20052;-54
2021/05/10 08:54:32;;;;;;;15.77;4.85;;;;;;;12.09;98.30;100240.72;5072163;28;20059;-53
2021/05/10 08:57:01;;;;;;;14.05;4.50;;;;;;;12.03;97.98;100219.63;5071631;28;20059;-56
2021/05/10 08:59:28;;;;;;;13.57;4.30;;;;;;;12.05;98.32;100228.53;5072024;28;20140;-52
2021/05/10 09:01:58;;;;;;;12.57;4.50;;;;;;;12.06;98.37;100225.41;5072016;28;20051;-55
2021/05/10 09:04:32;;;;;;;15.50;4.28;;;;;;;12.10;97.97;100236.78;5071779;28;20056;-57
2021/05/10 09:07:13;;;;;;;12.52;4.45;;;;;;;12.16;97.83;100229.06;5055030;28;20444;-56
2021/05/10 09:09:51;;;;;;;14.43;3.92;;;;;;;12.27;97.45;100238.78;5072042;28;20426;-54
2021/05/10 09:12:20;;;;;;;17.58;4.55;;;;;;;12.39;97.74;100252.94;5071472;28;20102;-55
2021/05/10 09:14:47;;;;;;;14.05;4.30;;;;;;;12.38;96.82;100256.94;5072461;28;20048;-54
2021/05/10 09:17:16;;;;;;;16.85;3.92;;;;;;;12.46;96.84;100267.28;5070759;28;20090;-57
2021/05/10 09:19:46;;;;;;;15.38;4.10;;;;;;;12.55;96.83;100276.53;5071526;28;20044;-59
2021/05/10 09:22:13;;;;;;;15.95;3.90;;;;;;;12.58;96.04;100275.06;5071506;28;20410;-54
2021/05/10 09:24:47;;;;;;;11.45;3.88;;;;;;;12.75;96.37;100291.88;5071191;28;20094;-56
2021/05/10 09:27:24;;;;;;;15.10;3.90;;;;;;;12.90;95.96;100301.78;5071652;28;20079;-53
2021/05/10 09:29:53;;;;;;;12.23;4.03;;;;;;;13.06;95.69;100305.72;5071507;28;20127;-51
2021/05/10 09:32:29;;;;;;;17.70;4.55;;;;;;;13.27;95.18;100309.53;5053083;28;20052;-57
2021/05/10 09:35:14;;;;;;;14.15;4.15;;;;;;;13.48;94.50;100309.69;5051825;28;20449;-55
2021/05/10 09:37:41;;;;;;;18.83;4.68;;;;;;;13.69;93.51;100326.63;5068887;28;20068;-55
2021/05/10 09:40:09;;;;;;;17.80;4.63;;;;;;;13.76;91.68;100332.56;5071114;28;20053;-53
2021/05/10 09:42:51;;;;;;;12.50;3.50;;;;;;;13.97;91.25;100344.72;5071284;28;20037;-54
2021/05/10 09:45:37;;;;;;;12.48;3.88;;;;;;;14.31;90.11;100356.97;5033166;28;20087;-50
2021/05/10 09:48:24;;;;;;;12.07;3.60;;;;;;;14.63;89.16;100366.75;5069031;28;20044;-54
2021/05/10 09:50:56;;;;;;;10.07;3.45;;;;;;;14.91;87.69;100378.34;5071611;28;20448;-56
2021/05/10 09:53:35;;;;;;;9.45;3.22;;;;;;;15.05;86.46;100373.28;5070759;28;20056;-55
2021/05/10 09:56:03;;;;;;;9.02;2.92;;;;;;;14.99;85.08;100388.69;5071193;28;20056;-53
2021/05/10 09:58:38;;;;;;;14.98;3.47;;;;;;;14.81;85.10;100394.41;5070529;28;20044;-52
2021/05/10 10:01:06;;;;;;;12.50;3.45;;;;;;;14.72;85.28;100390.84;5070304;28;20126;-50
2021/05/10 10:03:37;;;;;;;10.95;3.22;;;;;;;14.75;85.11;100400.56;5070522;28;20048;-51
2021/05/10 10:06:08;;;;;;;8.77;3.00;;;;;;;14.71;84.79;100396.78;5070998;28;20413;-51
2021/05/10 10:08:36;;;;;;;13.35;3.78;;;;;;;14.69;85.12;100405.56;5070069;28;20091;-50
2021/05/10 10:11:05;;;;;;;14.00;3.50;;;;;;;14.83;84.96;100420.16;5070847;28;20139;-53
2021/05/10 10:13:32;;;;;;;11.80;3.95;;;;;;;15.07;84.89;100430.78;5069691;28;20053;-49
2021/05/10 10:15:59;;;;;;;11.38;3.55;;;;;;;15.27;83.94;100426.34;5071099;28;20557;-47
2021/05/10 10:18:27;;;;;;;10.02;3.17;;;;;;;15.45;83.64;100427.06;5070539;28;20056;-49
2021/05/10 10:20:57;;;;;;;10.20;3.50;;;;;;;15.48;82.18;100435.63;5070246;28;20444;-50
2021/05/10 10:23:26;;;;;;;10.30;3.40;;;;;;;15.44;82.10;100451.53;5070581;28;20056;-49
2021/05/10 10:25:54;;;;;;;8.82;3.30;;;;;;;15.40;82.38;100459.00;5070192;28;20053;-48
2021/05/10 10:28:23;;;;;;;7.18;2.97;;;;;;;15.30;82.10;100462.22;5070072;28;20049;-50
2021/05/10 10:31:02;;;;;;;9.57;3.00;;;;;;;15.06;81.68;100468.47;5070654;28;20132;-50
2021/05/10 10:33:42;;;;;;;8.95;2.70;;;;;;;14.93;81.38;100480.78;5074286;28;20056;-50
2021/05/10 10:36:20;;;;;;;10.55;2.90;;;;;;;14.97;82.27;100489.38;5074252;28;20130;-50
2021/05/10 10:38:47;;;;;;;10.20;2.67;;;;;;;15.01;81.68;100474.28;5074075;28;20418;-50
2021/05/10 10:41:22;;;;;;;7.88;2.38;;;;;;;15.16;80.94;100476.53;5074468;28;20052;-50
2021/05/10 10:43:51;;;;;;;11.18;2.70;;;;;;;15.26;79.52;100472.50;5074376;28;20059;-53
2021/05/10 10:46:28;;;;;;;10.32;2.20;;;;;;;15.34;78.89;100480.06;5074605;28;20498;-54
2021/05/10 10:48:56;;;;;;;10.27;2.38;;;;;;;15.29;77.50;100480.25;5055445;28;20044;-51
2021/05/10 10:51:25;;;;;;;9.00;2.13;;;;;;;15.04;77.59;100481.22;5074544;28;20052;-51
2021/05/10 10:53:55;;;;;;;9.60;2.20;;;;;;;14.94;77.25;100476.81;5074045;28;20116;-51
2021/05/10 10:56:48;;;;;;;12.07;2.20;;;;;;;14.83;76.95;100484.78;5073656;28;20102;-49
2021/05/10 10:59:24;;;;;;;;;;;;;;;14.64;75.66;100475.94;5074322;28;20040;-47
2021/05/10 11:01:52;;;;;;;12.27;2.30;;;;;;;14.61;77.84;100473.78;5074307;28;19968;-47
2021/05/10 11:04:27;;;;;;;11.93;1.80;;;;;;;14.72;77.20;100474.28;5073555;28;20490;-54
2021/05/10 11:06:56;;;;;;;12.55;2.00;;;;;;;14.67;76.84;100483.69;5074326;28;20102;-52
2021/05/10 11:09:48;;;;;;;11.43;1.92;;;;;;;14.67;75.98;100477.25;5073465;28;20489;-48
2021/05/10 11:12:47;;;;;;;11.40;2.20;;;;;;;14.63;75.82;100495.94;5059410;28;20045;-49
2021/05/10 11:15:50;;;;;;;11.48;2.10;;;;;;;14.71;75.49;100515.56;5064659;28;20036;-53
2021/05/10 11:18:35;;;;;;;13.18;2.30;;;;;;;14.69;75.93;100503.84;5052447;28;20152;-52
2021/05/10 11:21:04;;;;;;;10.88;2.60;;;;;;;14.63;75.71;100524.84;5070108;28;20386;-55
2021/05/10 11:23:37;;;;;;;12.00;2.25;;;;;;;14.59;76.05;100529.47;5073421;28;20135;-57
2021/05/10 11:26:06;;;;;;;11.90;2.38;;;;;;;14.77;75.93;100542.34;5073191;28;20048;-51
2021/05/10 11:28:48;;;;;;;17.65;3.10;;;;;;;14.93;74.14;100538.97;5073523;28;20505;-50
2021/05/10 11:31:32;;;;;;;;;;;;;;;14.98;74.04;100541.59;5073654;28;20072;-54
2021/05/10 11:34:15;;;;;;;11.07;2.65;;;;;;;15.03;73.97;100539.41;5035463;28;19974;-50